Main page
METAR-TAF:

METAR-TAF

Airports :

Almería Airport

Almería, Spain

latitude: 36-51N, longitude: 002-23W, elevation: 15 m

Current weather observation

The report was made 26 minutes ago, at 23:30 UTC
Wind 4 kt from the Northeast, varying between North and East/Northeast
Temperature 20°C
Humidity 43%
Pressure 1018 hPa
Visibility 10 km or more

METAR: LEAM 222330Z AUTO 04004KT 360V070 9999 NCD 20/07 Q1018

Time: 01:56 (23:56 UTC)

Forecast

The report was made 3 hours and 56 minutes ago, at 20:00 UTC
Forecast valid from 22 at 21 UTC to 23 at 21 UTC
Wind 5 kt from the East
Visibility 10 km or more
no clouds below 1500 m and no cumulonimbus
Becoming
from 23 at 00 UTC to 23 at 02 UTC
Wind 10 kt from the North
Becoming
from 23 at 08 UTC to 23 at 10 UTC
Wind 10 kt from the South/Southwest
Becoming
from 23 at 16 UTC to 23 at 18 UTC
Wind 3 kt from variable directions

TAF: LEAM 222000Z 2221/2321 09005KT CAVOK TX26/2312Z TN17/2305Z BECMG 2300/2302 35010KT BECMG 2308/2310 20010KT BECMG 2316/2318 VRB03KT

Weather observations and forecasts of more than 4000 airports (METAR and TAF reports).

The available stations are represented by yellow and red dots on the map.

Hover mouse over dot to see the name of the station.

Then click to see weather observations and forecasts.

To change the map : click on the green buttons with a black cross to zoom in, on the green button with a dash to zoom out, or on the green arrows for adjacent maps.


METAR-TAF: